Atlas, Michigan
Current Conditions -  °F | °C
As of 1:53 AM on Saturday 01 Nov 2014 (Local Time) from KFNT Reporting Station
Overcast Overcast  
Wind Chill: 24°   Ceiling: 1100
Heat Index: 34°   Visibility: 10mi
Dew Point: 30°   Wind: 16mph
Humidity: 85%   Direction: 360°N
Pressure: 30.21"   Gusts: 28mph
Location:  42.94°N, 83.53°W
Report Text: KFNT 010553Z AUTO 36014G24KT 10SM OVC011 01/M01 A3021 RMK AO2 SNE17 SLP238 P0000 60004 T00111011 10011 20011 53009
Loading
Personal Weather Stations






























Interactive Weather Map
Tropical Storm Tracking
New forecast layout! Learn more

10-Day Weather Forecast

Advertisements
Track Severe Weather on mobile